Time;durP1;ratioP1;P1;durP2;ratioP2;P2;SDS_P1;SDS_P2;PMS_P1;PMS_P2;Temp;Humidity;BMP_temperature;BMP_pressure;BME280_temperature;BME280_humidity;BME280_pressure;Samples;Min_cycle;Max_cycle;Signal;HPM_P1;HPM_P2
2023/06/01 00:00:17;;;;;;;2.70;2.50;;;21.00;70.50;;;;;;4999383;28;20048;-75
2023/06/01 00:02:43;;;;;;;2.50;2.40;;;21.00;70.50;;;;;;4999223;28;20104;-75
2023/06/01 00:05:09;;;;;;;2.28;2.17;;;21.00;70.50;;;;;;5015645;28;20591;-75
2023/06/01 00:07:34;;;;;;;2.40;2.20;;;21.00;70.50;;;;;;5002610;28;20045;-75
2023/06/01 00:10:00;;;;;;;2.60;2.50;;;21.00;70.50;;;;;;5001896;28;20616;-75
2023/06/01 00:12:26;;;;;;;2.35;2.25;;;21.00;70.50;;;;;;4998880;28;22590;-75
2023/06/01 00:14:52;;;;;;;2.70;2.60;;;20.90;70.40;;;;;;5011587;28;20503;-75
2023/06/01 00:17:19;;;;;;;2.30;2.20;;;21.00;70.50;;;;;;4997477;28;20045;-75
2023/06/01 00:19:45;;;;;;;2.20;2.10;;;21.00;70.50;;;;;;5004120;28;20054;-74
2023/06/01 00:22:11;;;;;;;2.25;2.15;;;21.00;70.50;;;;;;5011926;28;20045;-75
2023/06/01 00:24:36;;;;;;;3.22;2.80;;;21.00;70.50;;;;;;4999323;28;20124;-75
2023/06/01 00:27:02;;;;;;;2.15;2.05;;;20.90;70.50;;;;;;5002310;28;20129;-75
2023/06/01 00:29:29;;;;;;;2.75;2.60;;;21.00;70.50;;;;;;5001852;28;20057;-75
2023/06/01 00:31:55;;;;;;;2.55;2.45;;;21.00;70.50;;;;;;5003564;28;20045;-75
2023/06/01 00:34:20;;;;;;;2.70;2.20;;;21.00;70.50;;;;;;4999928;28;20046;-75
2023/06/01 00:36:46;;;;;;;2.40;2.30;;;21.00;70.50;;;;;;4996278;28;20511;-75
2023/06/01 00:39:11;;;;;;;2.30;2.20;;;21.00;70.50;;;;;;4999038;28;20081;-75
2023/06/01 00:41:37;;;;;;;2.33;2.00;;;21.00;70.40;;;;;;4997988;28;20403;-75
2023/06/01 00:44:03;;;;;;;2.20;2.10;;;21.00;70.40;;;;;;5004374;28;20091;-75
2023/06/01 00:46:29;;;;;;;2.67;2.50;;;21.00;70.40;;;;;;4996571;28;20057;-75
2023/06/01 00:48:55;;;;;;;2.17;2.08;;;20.90;70.30;;;;;;5000814;28;20042;-75
2023/06/01 00:51:21;;;;;;;2.83;2.63;;;20.90;70.30;;;;;;4999281;28;20405;-75
2023/06/01 00:53:47;;;;;;;2.17;2.08;;;21.00;70.30;;;;;;5001882;28;20389;-75
2023/06/01 00:56:12;;;;;;;2.50;2.30;;;20.90;70.30;;;;;;5002569;28;20564;-75
2023/06/01 00:58:41;;;;;;;2.22;2.13;;;20.90;70.20;;;;;;4999261;28;20057;-75
2023/06/01 01:01:07;;;;;;;2.20;2.10;;;20.90;70.20;;;;;;4996196;28;20161;-75
2023/06/01 01:03:34;;;;;;;2.17;2.08;;;20.90;70.20;;;;;;4998393;28;20408;-75
2023/06/01 01:06:25;;;;;;;2.17;2.08;;;20.90;70.30;;;;;;5000873;28;20039;-74
2023/06/01 01:08:56;;;;;;;2.20;2.10;;;20.90;70.20;;;;;;5000476;28;20084;-74
2023/06/01 01:11:25;;;;;;;2.20;2.10;;;20.90;70.20;;;;;;4999256;28;20129;-75
2023/06/01 01:13:55;;;;;;;2.28;2.08;;;20.90;71.00;;;;;;5014556;28;20055;-74
2023/06/01 01:16:55;;;;;;;1.92;1.83;;;20.90;70.20;;;;;;4999890;28;20101;-75
2023/06/01 01:19:50;;;;;;;2.05;1.95;;;20.90;70.20;;;;;;4998077;28;20054;-75
2023/06/01 01:22:30;;;;;;;2.08;1.98;;;20.90;70.20;;;;;;4996806;28;20054;-74
2023/06/01 01:25:13;;;;;;;2.08;1.98;;;20.90;70.20;;;;;;5000012;28;20077;-75
2023/06/01 01:28:02;;;;;;;2.03;1.92;;;20.90;70.10;;;;;;4995937;28;20050;-74
2023/06/01 01:30:28;;;;;;;2.15;2.00;;;20.90;70.10;;;;;;4997625;28;20054;-74
2023/06/01 01:32:56;;;;;;;2.50;2.30;;;20.90;70.10;;;;;;5001821;28;20100;-74
2023/06/01 01:35:26;;;;;;;2.50;2.40;;;20.90;70.00;;;;;;4996257;28;20523;-75
2023/06/01 01:37:55;;;;;;;2.20;2.10;;;20.90;70.10;;;;;;4989254;28;20050;-75
2023/06/01 01:40:20;;;;;;;1.92;1.83;;;20.90;70.10;;;;;;5002013;28;21675;-74
2023/06/01 01:42:46;;;;;;;1.95;1.85;;;20.90;70.10;;;;;;5002302;28;20125;-74
2023/06/01 01:45:12;;;;;;;1.95;1.85;;;20.90;70.00;;;;;;5005852;28;20037;-75
2023/06/01 01:47:46;;;;;;;2.20;2.10;;;20.90;70.00;;;;;;5011823;28;20058;-75
2023/06/01 01:50:12;;;;;;;2.10;2.00;;;20.90;70.00;;;;;;5016993;28;20120;-75
2023/06/01 01:52:39;;;;;;;1.95;1.85;;;20.90;70.00;;;;;;5003055;28;20064;-75
2023/06/01 01:55:07;;;;;;;1.80;1.70;;;20.90;70.00;;;;;;5003813;28;20081;-75
2023/06/01 01:57:34;;;;;;;1.88;1.77;;;20.90;70.00;;;;;;5000112;28;20058;-75
2023/06/01 02:00:00;;;;;;;1.52;1.50;;;20.90;70.00;;;;;;5003990;28;20053;-75
2023/06/01 02:02:26;;;;;;;1.80;1.70;;;20.90;70.00;;;;;;5004581;28;20053;-74
2023/06/01 02:04:51;;;;;;;2.10;2.00;;;20.90;70.00;;;;;;5006284;28;20042;-75
2023/06/01 02:07:17;;;;;;;2.13;2.03;;;20.90;70.00;;;;;;5000278;28;20408;-75
2023/06/01 02:09:42;;;;;;;2.00;1.90;;;20.90;70.00;;;;;;5005040;28;20119;-75
2023/06/01 02:12:08;;;;;;;2.03;1.92;;;20.90;69.90;;;;;;5001091;28;20052;-75
2023/06/01 02:14:34;;;;;;;1.88;1.77;;;20.90;69.90;;;;;;5001284;28;20140;-75
2023/06/01 02:17:00;;;;;;;2.15;2.05;;;20.90;69.90;;;;;;5005624;28;20077;-75
2023/06/01 02:19:26;;;;;;;2.05;1.95;;;20.90;69.90;;;;;;5003676;28;20503;-75
2023/06/01 02:21:52;;;;;;;1.98;1.80;;;20.90;69.90;;;;;;5001378;28;20416;-75
2023/06/01 02:24:17;;;;;;;2.10;2.00;;;20.90;69.90;;;;;;4998951;28;20066;-75
2023/06/01 02:26:44;;;;;;;2.83;1.77;;;20.90;69.90;;;;;;5003757;28;20120;-75
2023/06/01 02:29:09;;;;;;;1.95;1.85;;;20.90;69.90;;;;;;5003812;28;20424;-75
2023/06/01 02:31:35;;;;;;;2.20;2.03;;;20.90;69.90;;;;;;4999712;28;20721;-75
2023/06/01 02:34:01;;;;;;;2.13;2.03;;;20.90;69.90;;;;;;5005141;28;20465;-75
2023/06/01 02:36:28;;;;;;;1.83;1.73;;;20.90;69.90;;;;;;5000872;28;20139;-75
2023/06/01 02:38:54;;;;;;;1.92;1.83;;;20.90;69.90;;;;;;5015150;28;20427;-75
2023/06/01 02:41:21;;;;;;;1.83;1.73;;;20.90;69.90;;;;;;5003328;28;20034;-75
2023/06/01 02:43:47;;;;;;;1.80;1.70;;;20.90;69.90;;;;;;5003249;28;20050;-75
2023/06/01 02:46:12;;;;;;;2.13;2.03;;;20.90;69.90;;;;;;4998550;28;20038;-75
2023/06/01 02:48:38;;;;;;;2.10;2.00;;;20.90;69.90;;;;;;5003200;28;20491;-75
2023/06/01 02:51:03;;;;;;;1.80;1.70;;;20.90;69.80;;;;;;4987172;28;20041;-75
2023/06/01 02:53:29;;;;;;;1.92;1.80;;;20.90;69.90;;;;;;5001411;28;20545;-75
2023/06/01 02:55:55;;;;;;;2.50;2.40;;;20.90;69.90;;;;;;5003833;28;20130;-74
2023/06/01 02:58:21;;;;;;;1.85;1.70;;;20.90;69.90;;;;;;5001211;28;20117;-75
2023/06/01 03:00:46;;;;;;;2.40;2.30;;;20.90;69.80;;;;;;5005926;28;20562;-75
2023/06/01 03:03:12;;;;;;;2.25;2.15;;;20.90;69.80;;;;;;4988142;28;20705;-75
2023/06/01 03:05:38;;;;;;;2.13;2.03;;;20.90;69.90;;;;;;5016586;28;20057;-75
2023/06/01 03:08:04;;;;;;;2.10;2.00;;;20.90;69.90;;;;;;5003946;28;20105;-75
2023/06/01 03:10:29;;;;;;;2.20;2.10;;;20.90;69.80;;;;;;4999728;28;20491;-75
2023/06/01 03:12:55;;;;;;;2.20;2.10;;;20.80;69.80;;;;;;5002189;28;20104;-75
2023/06/01 03:15:21;;;;;;;2.17;2.08;;;20.90;69.80;;;;;;4997071;28;20455;-75
2023/06/01 03:17:46;;;;;;;2.17;2.08;;;20.90;69.80;;;;;;5001162;28;20122;-75
2023/06/01 03:20:15;;;;;;;1.90;1.80;;;20.90;69.80;;;;;;5017044;28;20439;-75
2023/06/01 03:22:44;;;;;;;2.10;2.00;;;20.90;69.80;;;;;;5000990;28;20065;-75
2023/06/01 03:25:11;;;;;;;2.33;2.22;;;20.90;69.80;;;;;;5000302;28;20041;-75
2023/06/01 03:27:36;;;;;;;1.75;1.65;;;20.90;70.60;;;;;;5001436;28;20492;-75
2023/06/01 03:30:03;;;;;;;1.95;1.85;;;20.90;69.80;;;;;;4996568;28;20559;-75
2023/06/01 03:32:30;;;;;;;2.10;2.00;;;20.90;69.80;;;;;;4999937;28;20124;-75
2023/06/01 03:34:55;;;;;;;2.40;2.20;;;20.90;69.70;;;;;;5001162;28;20061;-75
2023/06/01 03:37:21;;;;;;;2.75;2.28;;;20.80;69.70;;;;;;4998186;28;20050;-75
2023/06/01 03:39:47;;;;;;;1.73;1.63;;;20.90;70.00;;;;;;5004099;28;20041;-75
2023/06/01 03:42:12;;;;;;;2.58;2.28;;;20.90;70.20;;;;;;4999140;28;20030;-75
2023/06/01 03:44:39;;;;;;;1.85;1.75;;;20.90;69.70;;;;;;4999307;28;20054;-75
2023/06/01 03:47:05;;;;;;;2.65;2.00;;;20.90;69.80;;;;;;5004085;28;20041;-75
2023/06/01 03:49:31;;;;;;;2.22;2.13;;;20.90;69.70;;;;;;4997446;28;20400;-75
2023/06/01 03:51:56;;;;;;;2.00;1.90;;;20.90;69.70;;;;;;4998388;28;20499;-74
2023/06/01 03:54:22;;;;;;;2.22;2.13;;;20.90;70.50;;;;;;5014989;28;20125;-75
2023/06/01 03:56:47;;;;;;;1.83;1.73;;;20.80;69.60;;;;;;5002094;28;20053;-75
2023/06/01 03:59:13;;;;;;;1.98;1.88;;;20.90;69.90;;;;;;5002109;28;20026;-75
2023/06/01 04:01:40;;;;;;;1.88;1.77;;;20.90;70.00;;;;;;4999987;28;20034;-75
2023/06/01 04:04:08;;;;;;;1.98;1.88;;;20.90;70.10;;;;;;5000344;28;20034;-75
2023/06/01 04:06:37;;;;;;;1.98;1.88;;;20.90;70.00;;;;;;5013817;28;20092;-75
2023/06/01 04:09:06;;;;;;;2.10;2.00;;;20.90;69.90;;;;;;5001019;28;20451;-75
2023/06/01 04:11:33;;;;;;;2.00;1.90;;;20.90;69.80;;;;;;4997774;28;20112;-75
2023/06/01 04:13:59;;;;;;;2.00;1.90;;;20.90;69.90;;;;;;5003149;28;20073;-75
2023/06/01 04:16:25;;;;;;;2.03;1.92;;;20.90;70.00;;;;;;4999594;28;20125;-75
2023/06/01 04:18:51;;;;;;;2.20;2.10;;;20.90;69.90;;;;;;5000745;28;20213;-75
2023/06/01 04:21:17;;;;;;;2.00;1.90;;;20.90;70.00;;;;;;5003588;28;20043;-75
2023/06/01 04:23:43;;;;;;;2.50;2.40;;;20.90;70.00;;;;;;4984594;28;20727;-74
2023/06/01 04:26:08;;;;;;;2.10;2.00;;;20.90;69.90;;;;;;5003368;28;20042;-75
2023/06/01 04:28:34;;;;;;;1.80;1.70;;;20.90;70.00;;;;;;5015966;28;20487;-75
2023/06/01 04:31:02;;;;;;;2.03;1.92;;;20.90;69.90;;;;;;4997356;28;20050;-75
2023/06/01 04:33:27;;;;;;;1.80;1.70;;;20.90;69.90;;;;;;4996676;28;20055;-74
2023/06/01 04:35:53;;;;;;;2.05;1.95;;;20.90;70.70;;;;;;5000383;28;20111;-75
2023/06/01 04:38:19;;;;;;;2.05;1.95;;;20.90;69.90;;;;;;4984683;28;20057;-75
2023/06/01 04:40:45;;;;;;;2.00;1.90;;;20.80;69.80;;;;;;5001324;28;20073;-74
2023/06/01 04:43:12;;;;;;;7.07;6.55;;;20.90;69.70;;;;;;4999195;28;20050;-74
2023/06/01 04:45:38;;;;;;;14.13;11.65;;;20.50;66.30;;;;;;5000036;28;20038;-74
2023/06/01 04:48:08;;;;;;;17.73;12.50;;;19.20;67.90;;;;;;4997123;28;20034;-74
2023/06/01 04:50:34;;;;;;;16.65;11.68;;;18.40;70.40;;;;;;5001052;28;20041;-74
2023/06/01 04:53:00;;;;;;;13.90;11.43;;;18.00;72.80;;;;;;4987332;28;20045;-74
2023/06/01 04:55:26;;;;;;;17.13;11.88;;;17.90;73.30;;;;;;5000620;28;20100;-74
2023/06/01 04:57:52;;;;;;;15.90;12.70;;;17.90;73.00;;;;;;5001747;28;20045;-74
2023/06/01 05:00:18;;;;;;;15.73;12.38;;;17.50;74.20;;;;;;4999410;28;20046;-74
2023/06/01 05:02:44;;;;;;;16.70;12.45;;;17.40;74.60;;;;;;4998544;28;20042;-74
2023/06/01 05:05:10;;;;;;;14.55;11.60;;;17.40;75.20;;;;;;5001202;28;20041;-74
2023/06/01 05:07:36;;;;;;;16.90;13.50;;;17.20;75.90;;;;;;4998078;28;20096;-74
2023/06/01 05:10:06;;;;;;;16.35;13.13;;;17.10;76.20;;;;;;4998929;28;20145;-73
2023/06/01 05:12:34;;;;;;;16.08;13.50;;;17.10;76.40;;;;;;5004420;28;20058;-74
2023/06/01 05:15:00;;;;;;;16.25;11.93;;;17.10;76.50;;;;;;4982768;28;20029;-73
2023/06/01 05:17:26;;;;;;;17.75;12.25;;;16.90;77.20;;;;;;5003059;28;20440;-73
2023/06/01 05:19:52;;;;;;;16.45;13.52;;;16.90;77.20;;;;;;5004838;28;20049;-73
2023/06/01 05:22:17;;;;;;;15.82;12.30;;;17.00;77.20;;;;;;5004202;28;20121;-73
2023/06/01 05:24:43;;;;;;;16.15;12.32;;;17.00;77.10;;;;;;5003663;28;20507;-73
2023/06/01 05:27:08;;;;;;;13.30;11.75;;;17.00;77.20;;;;;;4652138;28;10000636;-73
2023/06/01 05:29:34;;;;;;;16.90;11.40;;;17.00;77.30;;;;;;4998800;28;20050;-73
2023/06/01 05:32:00;;;;;;;13.05;11.27;;;17.00;77.20;;;;;;4985445;28;20046;-73
2023/06/01 05:34:25;;;;;;;17.70;13.00;;;17.00;77.30;;;;;;5000388;28;20530;-73
2023/06/01 05:36:51;;;;;;;15.98;12.60;;;16.90;77.20;;;;;;4997540;28;20053;-73
2023/06/01 05:39:16;;;;;;;13.95;12.32;;;17.10;77.00;;;;;;5001438;28;20103;-73
2023/06/01 05:41:42;;;;;;;15.82;12.75;;;16.90;77.60;;;;;;4996114;28;20038;-73
2023/06/01 05:44:08;;;;;;;14.07;12.57;;;17.00;77.70;;;;;;5003658;28;20838;-74
2023/06/01 05:46:33;;;;;;;16.23;12.77;;;16.80;78.20;;;;;;4998728;28;20537;-74
2023/06/01 05:48:59;;;;;;;15.10;11.88;;;16.80;78.60;;;;;;5001304;28;20057;-73
2023/06/01 05:51:25;;;;;;;14.73;12.25;;;16.80;78.40;;;;;;4999696;28;20524;-73
2023/06/01 05:53:50;;;;;;;17.40;13.20;;;16.90;78.20;;;;;;5002645;28;20053;-73
2023/06/01 05:56:19;;;;;;;17.65;12.85;;;16.80;78.30;;;;;;5001147;28;20050;-73
2023/06/01 05:58:46;;;;;;;17.05;11.77;;;16.90;78.40;;;;;;5001203;28;20050;-73
2023/06/01 06:01:11;;;;;;;15.02;12.02;;;17.20;77.50;;;;;;5000681;28;20772;-72
2023/06/01 06:03:38;;;;;;;14.50;12.80;;;17.40;76.50;;;;;;4999323;28;20133;-73
2023/06/01 06:06:03;;;;;;;13.85;11.88;;;17.60;75.70;;;;;;4996043;28;20060;-73
2023/06/01 06:08:29;;;;;;;16.05;11.48;;;17.70;75.30;;;;;;4997882;28;20037;-74
2023/06/01 06:10:55;;;;;;;15.35;11.93;;;17.60;75.60;;;;;;5001262;28;20053;-72
2023/06/01 06:13:20;;;;;;;12.43;10.90;;;17.60;75.80;;;;;;4999398;28;20057;-72
2023/06/01 06:15:46;;;;;;;14.50;9.60;;;17.80;75.60;;;;;;5003309;28;20045;-73
2023/06/01 06:18:11;;;;;;;13.20;10.98;;;18.10;74.80;;;;;;5001347;28;20049;-73
2023/06/01 06:20:37;;;;;;;11.88;10.57;;;18.20;74.20;;;;;;5000504;28;20091;-73
2023/06/01 06:23:03;;;;;;;13.93;9.65;;;18.40;73.90;;;;;;5006341;28;20045;-73
2023/06/01 06:25:28;;;;;;;10.45;8.77;;;18.50;73.00;;;;;;5002595;28;20050;-73
2023/06/01 06:27:54;;;;;;;10.40;9.27;;;18.60;72.90;;;;;;5004751;28;20062;-73
2023/06/01 06:30:21;;;;;;;11.57;8.93;;;18.70;72.30;;;;;;5005289;28;20125;-73
2023/06/01 06:32:47;;;;;;;9.90;8.77;;;18.60;72.20;;;;;;5004897;28;20084;-73
2023/06/01 06:35:12;;;;;;;10.93;9.55;;;18.70;72.00;;;;;;5003918;28;20038;-73
2023/06/01 06:37:40;;;;;;;9.63;8.63;;;18.80;71.70;;;;;;5004517;28;20511;-72
2023/06/01 06:40:06;;;;;;;9.23;8.25;;;18.80;71.70;;;;;;5003113;28;20077;-73
2023/06/01 06:42:32;;;;;;;9.73;8.82;;;18.70;71.60;;;;;;5001541;28;20125;-73
2023/06/01 06:44:57;;;;;;;10.10;8.95;;;18.80;71.60;;;;;;5004173;28;20062;-72
2023/06/01 06:47:24;;;;;;;10.27;8.77;;;18.80;71.60;;;;;;5005836;28;20057;-72
2023/06/01 06:49:51;;;;;;;10.73;8.75;;;18.80;72.40;;;;;;5005191;28;20057;-73
2023/06/01 06:52:16;;;;;;;10.32;8.65;;;18.80;71.40;;;;;;4999914;28;20045;-73
2023/06/01 06:54:42;;;;;;;9.77;8.80;;;18.90;71.50;;;;;;4998465;28;20049;-73
2023/06/01 06:57:08;;;;;;;9.85;8.93;;;18.90;71.50;;;;;;5005109;28;20042;-73
2023/06/01 06:59:33;;;;;;;8.90;8.00;;;18.90;72.30;;;;;;5003497;28;20550;-73
2023/06/01 07:01:59;;;;;;;9.27;8.40;;;18.90;71.40;;;;;;5004643;28;20033;-73
2023/06/01 07:04:25;;;;;;;8.85;8.05;;;18.90;71.40;;;;;;5003201;28;20407;-73
2023/06/01 07:06:51;;;;;;;9.90;8.98;;;18.90;72.30;;;;;;5000258;28;20496;-73
2023/06/01 07:09:17;;;;;;;9.70;8.70;;;19.00;71.40;;;;;;4994163;28;20428;-73
2023/06/01 07:11:43;;;;;;;9.55;8.52;;;19.00;71.40;;;;;;4999016;28;20084;-74
2023/06/01 07:14:08;;;;;;;13.25;10.55;;;19.00;71.70;;;;;;5004596;28;20103;-73
2023/06/01 07:16:34;;;;;;;11.20;9.95;;;19.00;72.40;;;;;;5003850;28;20107;-72
2023/06/01 07:19:00;;;;;;;10.00;9.10;;;19.00;72.30;;;;;;5004142;28;20049;-72
2023/06/01 07:21:25;;;;;;;9.13;8.27;;;19.00;72.20;;;;;;5004026;28;20041;-72
2023/06/01 07:23:51;;;;;;;9.48;8.52;;;19.00;71.90;;;;;;4999686;28;20134;-73
2023/06/01 07:26:17;;;;;;;9.38;8.05;;;19.20;71.80;;;;;;5002382;28;20050;-73
2023/06/01 07:28:42;;;;;;;9.50;7.85;;;19.20;71.40;;;;;;5001188;28;20029;-73
2023/06/01 07:31:08;;;;;;;8.48;7.68;;;19.20;71.30;;;;;;5003868;28;20038;-73
2023/06/01 07:33:35;;;;;;;9.23;8.30;;;19.30;71.20;;;;;;5001176;28;20062;-73
2023/06/01 07:36:01;;;;;;;8.90;8.05;;;19.30;71.00;;;;;;5003489;28;20080;-73
2023/06/01 07:38:27;;;;;;;9.27;8.35;;;19.30;71.00;;;;;;5001064;28;20049;-73
2023/06/01 07:40:52;;;;;;;8.73;7.88;;;19.30;70.90;;;;;;5002444;28;20046;-73
2023/06/01 07:43:18;;;;;;;8.13;7.47;;;19.40;70.90;;;;;;5001303;28;20129;-73
2023/06/01 07:45:44;;;;;;;8.40;7.70;;;19.40;70.90;;;;;;5003712;28;20511;-73
2023/06/01 07:48:10;;;;;;;8.27;7.53;;;19.40;71.00;;;;;;5018818;28;20407;-72
2023/06/01 07:50:36;;;;;;;8.48;7.60;;;19.40;70.90;;;;;;5000458;28;20125;-73
2023/06/01 07:53:02;;;;;;;7.97;7.32;;;19.50;70.90;;;;;;5005118;28;20054;-73
2023/06/01 07:55:28;;;;;;;6.93;6.43;;;19.50;70.80;;;;;;5003100;28;20479;-73
2023/06/01 07:57:54;;;;;;;6.55;6.05;;;19.50;70.70;;;;;;4999172;28;20076;-73
2023/06/01 08:00:19;;;;;;;7.20;6.43;;;19.50;70.70;;;;;;5003690;28;20334;-73
2023/06/01 08:02:45;;;;;;;7.03;6.22;;;19.50;70.60;;;;;;4999403;28;20054;-73
2023/06/01 08:05:12;;;;;;;7.13;6.43;;;19.60;70.60;;;;;;5004812;28;20042;-73
2023/06/01 08:07:38;;;;;;;6.45;5.78;;;19.60;70.60;;;;;;5014520;28;20756;-73
2023/06/01 08:10:08;;;;;;;6.93;6.20;;;19.70;70.30;;;;;;5002359;28;20049;-73
2023/06/01 08:12:34;;;;;;;5.60;5.20;;;19.70;70.50;;;;;;5000695;28;20061;-73
2023/06/01 08:15:00;;;;;;;6.15;5.65;;;19.70;70.40;;;;;;5000216;28;20091;-73
2023/06/01 08:17:26;;;;;;;5.97;5.38;;;19.70;70.30;;;;;;5003577;28;20046;-72
2023/06/01 08:19:52;;;;;;;6.65;6.07;;;19.70;70.30;;;;;;5003313;28;20043;-73
2023/06/01 08:22:20;;;;;;;6.03;5.55;;;19.70;70.20;;;;;;4999725;28;20500;-73
2023/06/01 08:24:47;;;;;;;6.30;5.90;;;19.70;70.30;;;;;;5000878;28;20499;-73
2023/06/01 08:27:23;;;;;;;5.82;5.43;;;19.80;70.30;;;;;;5001524;28;20466;-73
2023/06/01 08:29:49;;;;;;;7.00;6.30;;;19.80;70.10;;;;;;4999700;28;20084;-73
2023/06/01 08:32:14;;;;;;;6.30;5.72;;;19.80;70.20;;;;;;5001737;28;20046;-73
2023/06/01 08:34:40;;;;;;;6.22;5.43;;;19.80;70.10;;;;;;5003431;28;20070;-73
2023/06/01 08:37:06;;;;;;;6.20;5.70;;;19.90;70.30;;;;;;5002969;28;20069;-73
2023/06/01 08:39:32;;;;;;;7.53;5.53;;;19.90;70.30;;;;;;5002246;28;20561;-73
2023/06/01 08:42:08;;;;;;;6.53;5.05;;;19.90;70.10;;;;;;5001534;28;20042;-73
2023/06/01 08:44:38;;;;;;;5.43;5.03;;;19.90;70.40;;;;;;5012850;28;20050;-73
2023/06/01 08:47:04;;;;;;;5.55;4.90;;;19.90;70.40;;;;;;5008248;28;20168;-73
2023/06/01 08:49:30;;;;;;;5.88;5.10;;;20.00;70.40;;;;;;5007609;28;20061;-73
2023/06/01 08:51:57;;;;;;;5.00;4.63;;;20.00;70.10;;;;;;5004448;28;20080;-73
2023/06/01 08:54:22;;;;;;;5.05;4.75;;;20.00;70.20;;;;;;5004893;28;20049;-73
2023/06/01 08:56:48;;;;;;;5.10;4.60;;;20.00;70.10;;;;;;5005619;28;20050;-73
2023/06/01 08:59:13;;;;;;;4.63;4.22;;;20.00;70.10;;;;;;5007451;28;20503;-73
2023/06/01 09:01:39;;;;;;;5.18;4.82;;;20.10;70.20;;;;;;5007582;28;20026;-73
2023/06/01 09:04:05;;;;;;;5.10;4.70;;;20.10;70.10;;;;;;5005983;28;20133;-73
2023/06/01 09:06:30;;;;;;;4.53;4.13;;;20.10;70.30;;;;;;5003918;28;20034;-73
2023/06/01 09:08:56;;;;;;;4.25;4.05;;;20.10;70.10;;;;;;5007227;28;20069;-72
2023/06/01 09:11:21;;;;;;;4.75;4.40;;;20.10;70.10;;;;;;5004257;28;20492;-72
2023/06/01 09:13:47;;;;;;;4.78;4.38;;;20.10;70.20;;;;;;5005970;28;20037;-72
2023/06/01 09:16:13;;;;;;;4.20;3.90;;;20.10;70.00;;;;;;5022776;28;20137;-72
2023/06/01 09:18:53;;;;;;;4.78;4.47;;;20.20;70.00;;;;;;5003921;28;20508;-72
2023/06/01 09:21:19;;;;;;;4.35;4.15;;;20.20;70.00;;;;;;5004777;28;20476;-72
2023/06/01 09:23:45;;;;;;;4.15;3.95;;;20.20;70.80;;;;;;5007546;28;20022;-73
2023/06/01 09:26:11;;;;;;;4.53;4.13;;;20.20;69.90;;;;;;5006698;28;20048;-72
2023/06/01 09:28:55;;;;;;;4.68;4.30;;;20.20;70.80;;;;;;5005240;28;20043;-72
2023/06/01 09:31:45;;;;;;;4.25;4.00;;;20.20;69.80;;;;;;5004696;28;20037;-72
2023/06/01 09:34:15;;;;;;;4.95;4.57;;;20.20;69.80;;;;;;5006908;28;20423;-72
2023/06/01 09:36:41;;;;;;;3.88;3.65;;;20.30;69.90;;;;;;5016580;28;20145;-72
2023/06/01 09:39:11;;;;;;;4.70;4.20;;;20.30;69.90;;;;;;5006408;28;20133;-72
2023/06/01 09:41:53;;;;;;;4.70;4.40;;;20.30;69.80;;;;;;5006184;28;20045;-72
2023/06/01 09:44:32;;;;;;;4.60;4.30;;;20.30;69.80;;;;;;5005130;28;20132;-72
2023/06/01 09:46:59;;;;;;;4.20;4.00;;;20.30;70.10;;;;;;5005453;28;20050;-72
2023/06/01 09:49:29;;;;;;;3.90;3.60;;;20.40;70.10;;;;;;5003417;28;20088;-72
2023/06/01 09:52:03;;;;;;;4.50;4.22;;;20.40;70.10;;;;;;5001869;28;20053;-72
2023/06/01 09:54:30;;;;;;;4.10;3.80;;;20.40;70.00;;;;;;5006918;28;20522;-72
2023/06/01 09:56:56;;;;;;;13.02;3.90;;;20.40;70.30;;;;;;5002775;28;20056;-73
2023/06/01 09:59:22;;;;;;;3.95;3.55;;;20.40;70.00;;;;;;5005450;28;20069;-73
2023/06/01 10:01:51;;;;;;;3.88;3.50;;;20.40;70.10;;;;;;5003411;28;20046;-73
2023/06/01 10:04:22;;;;;;;4.05;3.40;;;20.40;70.10;;;;;;5002685;28;20069;-73
2023/06/01 10:06:51;;;;;;;4.60;4.28;;;20.40;70.20;;;;;;5001976;28;20064;-72
2023/06/01 10:09:19;;;;;;;4.60;4.25;;;20.50;70.10;;;;;;5007799;28;20038;-72
2023/06/01 10:11:45;;;;;;;4.18;3.90;;;20.50;70.10;;;;;;5021022;28;20042;-72
2023/06/01 10:14:11;;;;;;;4.10;3.80;;;20.50;70.10;;;;;;5022105;28;20574;-72
2023/06/01 10:16:36;;;;;;;6.00;3.63;;;20.50;70.10;;;;;;5006798;28;20134;-72
2023/06/01 10:19:02;;;;;;;3.60;3.40;;;20.50;70.10;;;;;;5001108;28;20077;-72
2023/06/01 10:21:28;;;;;;;3.90;3.70;;;20.50;70.90;;;;;;5002370;28;20125;-72
2023/06/01 10:23:54;;;;;;;4.07;3.70;;;20.50;70.00;;;;;;5001136;28;20041;-72
2023/06/01 10:26:19;;;;;;;3.53;3.33;;;20.50;70.00;;;;;;5004172;28;20149;-72
2023/06/01 10:28:45;;;;;;;4.40;3.83;;;20.50;70.00;;;;;;5003476;28;20053;-72
2023/06/01 10:31:36;;;;;;;4.13;3.50;;;20.60;70.00;;;;;;4999434;28;20048;-73
2023/06/01 10:34:02;;;;;;;4.00;3.70;;;20.60;70.00;;;;;;5002846;28;20054;-72
2023/06/01 10:36:52;;;;;;;4.40;4.00;;;20.60;70.00;;;;;;5003315;28;20030;-72
2023/06/01 10:39:31;;;;;;;3.78;3.53;;;20.60;70.00;;;;;;5000992;28;20496;-72
2023/06/01 10:41:58;;;;;;;4.00;3.80;;;20.60;70.00;;;;;;5017181;28;20057;-73
2023/06/01 10:44:38;;;;;;;4.32;3.83;;;20.60;70.30;;;;;;4650896;28;10000026;-74
2023/06/01 10:47:05;;;;;;;3.70;3.50;;;20.60;70.80;;;;;;5001359;28;20037;-74
2023/06/01 10:49:53;;;;;;;4.05;3.85;;;20.70;71.70;;;;;;4999735;28;20271;-74
2023/06/01 10:52:29;;;;;;;3.83;3.63;;;20.70;71.50;;;;;;4994171;28;20133;-73
2023/06/01 10:55:16;;;;;;;4.53;4.28;;;20.70;70.70;;;;;;4996055;28;20050;-73
2023/06/01 10:57:45;;;;;;;3.85;3.65;;;20.70;72.60;;;;;;4997949;28;20042;-73
2023/06/01 11:00:20;;;;;;;5.88;4.22;;;20.70;73.30;;;;;;5000565;28;20053;-73
2023/06/01 11:02:52;;;;;;;3.75;3.45;;;20.70;72.30;;;;;;4997319;28;20046;-73
2023/06/01 11:05:46;;;;;;;3.58;3.38;;;20.80;71.90;;;;;;5014000;28;20050;-73
2023/06/01 11:08:21;;;;;;;4.47;4.15;;;20.80;71.30;;;;;;5012347;28;20147;-73
2023/06/01 11:10:53;;;;;;;3.50;3.30;;;20.80;70.80;;;;;;4998613;28;20061;-73
2023/06/01 11:13:21;;;;;;;3.80;3.60;;;20.80;70.60;;;;;;4997736;28;20080;-73
2023/06/01 11:16:07;;;;;;;3.78;3.35;;;20.80;70.40;;;;;;5008458;28;20045;-73
2023/06/01 11:19:00;;;;;;;3.33;3.13;;;20.80;70.20;;;;;;4999672;28;20065;-73
2023/06/01 11:21:35;;;;;;;3.58;3.28;;;20.80;70.00;;;;;;5000021;28;20427;-73
2023/06/01 11:24:05;;;;;;;3.65;3.45;;;20.80;70.00;;;;;;4998605;28;20046;-73
2023/06/01 11:26:36;;;;;;;3.35;3.15;;;20.90;70.00;;;;;;4997703;28;20041;-73
2023/06/01 11:29:06;;;;;;;3.63;3.42;;;20.80;69.80;;;;;;5015937;28;20053;-73
2023/06/01 11:31:40;;;;;;;4.28;3.42;;;20.80;69.80;;;;;;4999665;28;20415;-73
2023/06/01 11:34:07;;;;;;;3.30;3.05;;;20.80;69.80;;;;;;5001039;28;20558;-74
2023/06/01 11:36:40;;;;;;;3.60;3.30;;;20.90;69.90;;;;;;4995815;28;20417;-74
2023/06/01 11:39:08;;;;;;;3.75;3.10;;;20.90;70.00;;;;;;5001994;28;20042;-73
2023/06/01 11:41:36;;;;;;;3.40;3.20;;;20.90;69.70;;;;;;5001912;28;20062;-74
2023/06/01 11:44:02;;;;;;;4.00;3.80;;;21.00;69.50;;;;;;5004528;28;20034;-74
2023/06/01 11:46:28;;;;;;;3.20;3.00;;;20.90;69.40;;;;;;5000807;28;20443;-73
2023/06/01 11:49:04;;;;;;;3.05;2.88;;;20.90;69.40;;;;;;5002556;28;20077;-74
2023/06/01 11:51:35;;;;;;;3.88;3.65;;;20.90;69.30;;;;;;5012308;28;20163;-74
2023/06/01 11:54:01;;;;;;;3.40;3.20;;;20.90;69.40;;;;;;4998907;28;20081;-74
2023/06/01 11:56:29;;;;;;;3.15;3.00;;;20.90;70.50;;;;;;5007432;28;24920;-74
2023/06/01 11:58:58;;;;;;;4.07;3.17;;;21.00;70.10;;;;;;5002602;28;20029;-74
2023/06/01 12:01:24;;;;;;;3.63;3.40;;;21.00;69.40;;;;;;5003348;28;20073;-74
2023/06/01 12:03:50;;;;;;;3.20;3.10;;;21.00;69.30;;;;;;5016430;28;20562;-74
2023/06/01 12:06:20;;;;;;;3.55;3.25;;;21.00;69.10;;;;;;5001441;28;20132;-74
2023/06/01 12:08:45;;;;;;;3.28;3.08;;;21.00;69.10;;;;;;5014871;28;20034;-74
2023/06/01 12:11:11;;;;;;;3.05;2.85;;;20.90;69.10;;;;;;5003401;28;20046;-74
2023/06/01 12:13:37;;;;;;;3.28;3.08;;;20.90;68.90;;;;;;5013746;28;20133;-74
2023/06/01 12:16:03;;;;;;;3.47;3.20;;;21.00;69.00;;;;;;4999401;28;20107;-74
2023/06/01 12:18:30;;;;;;;3.25;3.05;;;21.00;68.90;;;;;;5002035;28;20112;-74
2023/06/01 12:20:56;;;;;;;3.17;2.97;;;20.90;69.00;;;;;;5002001;28;20057;-74
2023/06/01 12:23:21;;;;;;;3.25;3.05;;;21.00;68.90;;;;;;5015641;28;20551;-74
2023/06/01 12:25:55;;;;;;;4.43;3.17;;;21.00;69.00;;;;;;5002801;28;20423;-74
2023/06/01 12:28:21;;;;;;;3.13;3.03;;;21.00;68.90;;;;;;5001985;28;20129;-74
2023/06/01 12:30:47;;;;;;;3.08;2.95;;;21.00;68.90;;;;;;5002318;28;20061;-74
2023/06/01 12:33:35;;;;;;;2.67;2.55;;;21.00;68.90;;;;;;5000947;28;20058;-74
2023/06/01 12:36:05;;;;;;;3.35;3.00;;;21.00;69.00;;;;;;5003666;28;20053;-74
2023/06/01 12:38:37;;;;;;;3.25;3.05;;;21.00;69.00;;;;;;5001528;28;20046;-74
2023/06/01 12:41:10;;;;;;;2.72;2.63;;;21.00;68.90;;;;;;5001273;28;20038;-74
2023/06/01 12:43:36;;;;;;;3.00;2.80;;;21.00;68.80;;;;;;5001584;28;20052;-74
2023/06/01 12:46:05;;;;;;;2.90;2.80;;;21.00;68.80;;;;;;5002079;28;20046;-74